Latest Coastal Weather Observations for Karratha

IDW60701

Issued at 12:53 pm WST Sunday 28 May 2017 (issued every 10 minutes, with the page automatically refreshed every 10 minutes)

About coastal observations | Map of coastal stations | Coastal observations for WA | Marine services | Other Formats
Station Details ID: 004083 Name: KARRATHA AERO Lat: -20.71 Lon: 116.77 Height: 5.3 m
Data from the previous 72 hours. | See also: Recent months at Karratha
Date/Time
WST
Temp
°C
Wind Pressure Rain since
9am
mm
Weather Cloud Vis
km
Sea
Height
m
Swell
Dir  Spd
kts
Gust
kts
hPa Trend Height
m
Period
s
Dir
28/12:30pm 28.7 NNE 11 14 1013.7 - 0.0 - - 10 - - - -
28/12:00pm 29.2 NE 12 14 1014.1 - 0.0 - - 10 - - - -
28/11:30am 29.5 NE 9 12 1014.4 - 0.0 - - 10 - - - -
28/11:00am 29.7 ENE 12 16 1014.8 - 0.0 - - 10 - - - -
28/10:30am 29.0 ENE 12 15 1015.1 - 0.0 - - 10 - - - -
28/10:00am 28.7 ENE 12 15 1015.3 - 0.0 - - 10 - - - -
28/09:30am 27.2 ENE 10 14 1015.4 - 0.0 - - 10 - - - -
28/09:00am 25.7 ENE 6 9 1015.6 - 0.0 - - 10 - - - -
28/08:30am 24.8 E 4 5 1015.0 - 0.0 - - 10 - - - -
28/08:00am 23.7 CALM 0 0 1014.6 - 0.0 - - 10 - - - -
28/07:30am 20.4 CALM 0 0 1014.5 - 0.0 - - 10 - - - -
28/07:00am 19.6 N 1 4 1014.1 - 0.0 - - 10 - - - -
28/06:30am 18.6 NE 5 6 1013.9 - 0.0 - - 10 - - - -
28/06:00am 17.3 ESE 5 7 1013.8 - 0.0 - - 10 - - - -
28/05:30am 17.2 SSE 7 8 1013.2 - 0.0 - - 10 - - - -
28/05:00am 18.2 CALM 0 2 1013.1 - 0.0 - - 10 - - - -
28/04:30am 19.2 WSW 2 4 1013.2 - 0.0 - - 10 - - - -
28/04:00am 21.7 W 4 5 1013.1 - 0.0 - - 10 - - - -
28/03:30am 21.5 W 6 6 1013.0 - 0.0 - - 10 - - - -
28/03:00am 20.1 SSW 4 4 1013.3 - 0.0 - - 10 - - - -
28/02:30am 21.2 SW 1 5 1013.4 - 0.0 - - 10 - - - -
28/02:00am 20.4 CALM 0 0 1013.7 - 0.0 - - 10 - - - -
28/01:30am 21.0 CALM 0 0 1013.6 - 0.0 - - 10 - - - -
28/01:00am 21.1 SW 6 6 1013.5 - 0.0 - Partly cloudy 10 - - - -
28/12:30am 21.5 WSW 7 8 1013.7 - 0.0 - - 10 - - - -
28/12:00am 21.3 WSW 6 7 1013.8 - 0.0 - - 10 - - - -
 
Date/Time
WST
Temp
°C
Wind Pressure Rain since
9am
mm
Weather Cloud Vis
km
Sea
Height
m
Swell
Dir  Spd
kts
Gust
kts
hPa Trend Height
m
Period
s
Dir
27/11:30pm 21.6 SW 7 8 1014.0 - 0.0 - - 10 - - - -
27/11:00pm 22.0 SW 7 8 1014.0 - 0.0 - - 10 - - - -
27/10:30pm 22.6 SW 7 9 1014.1 - 0.0 - - 10 - - - -
27/10:00pm 22.9 SW 7 7 1014.1 - 0.0 - - 10 - - - -
27/09:30pm 23.8 WSW 7 8 1014.2 - 0.0 - - 10 - - - -
27/09:00pm 24.5 W 7 8 1014.1 - 0.0 - Mostly clear 10 - - - -
27/08:30pm 23.7 SW 5 6 1014.1 - 0.0 - - 10 - - - -
27/08:00pm 24.8 WSW 5 7 1013.9 - 0.0 - - 10 - - - -
27/07:30pm 25.9 WNW 5 7 1013.5 - 0.0 - - 10 - - - -
27/07:00pm 26.1 WNW 7 9 1013.1 - 0.0 - - 10 - - - -
27/06:30pm 26.5 NW 7 9 1012.6 - 0.0 - - 10 - - - -
27/06:00pm 26.8 NNW 8 11 1012.2 - 0.0 - - 10 - - - -
27/05:30pm 27.5 NNW 7 9 1012.1 - 0.0 - - 10 - - - -
27/05:00pm 28.5 NNW 9 14 1011.9 - 0.0 - - 10 - - - -
27/04:30pm 29.0 NNW 10 13 1011.6 - 0.0 - - 10 - - - -
27/04:00pm 29.8 NNE 9 12 1011.7 - 0.0 - - 10 - - - -
27/03:30pm 29.1 NNE 11 14 1011.6 - 0.0 - - 10 - - - -
27/03:00pm 29.8 NNE 9 12 1011.5 - 0.0 - Mostly clear 10 - - - -
27/02:30pm 29.4 NE 11 13 1011.6 - 0.0 - - 10 - - - -
27/02:00pm 28.8 NNE 11 13 1011.5 - 0.0 - - 10 - - - -
27/01:30pm 29.0 NNE 12 16 1011.9 - 0.0 - - 10 - - - -
27/01:00pm 30.0 NNE 12 21 1012.0 - 0.0 - - 10 - - - -
27/12:30pm 33.1 NW 4 6 1012.2 - 0.0 - - 10 - - - -
27/12:00pm 33.1 ENE 2 5 1012.6 - 0.0 - - 10 - - - -
27/11:30am 30.6 NE 7 9 1013.0 - 0.0 - - 10 - - - -
27/11:00am 30.2 NE 3 6 1013.3 - 0.0 - - 10 - - - -
27/10:30am 29.2 NE 6 8 1013.6 - 0.0 - - 10 - - - -
27/10:00am 27.5 NE 5 10 1013.8 - 0.0 - - 10 - - - -
27/09:30am 28.7 ESE 3 8 1013.9 - 0.0 - - 10 - - - -
27/09:00am 26.8 SE 5 7 1013.7 - 0.0 - - 10 - - - -
27/08:30am 24.9 SW 4 6 1013.6 - 0.0 - - 10 - - - -
27/08:00am 22.6 S 2 5 1013.5 - 0.0 - - 10 - - - -
27/07:30am 21.0 SSW 5 7 1013.4 - 0.0 - - 10 - - - -
27/07:00am 19.4 SW 8 9 1013.1 - 0.0 - - 10 - - - -
27/06:30am 18.9 SW 7 8 1013.0 - 0.0 - - 10 - - - -
27/06:00am 19.1 SW 8 9 1012.8 - 0.0 - - 10 - - - -
27/05:30am 19.5 SW 6 8 1012.8 - 0.0 - - 10 - - - -
27/05:00am 20.7 WSW 8 8 1012.6 - 0.0 - - 10 - - - -
27/04:30am 20.4 WSW 8 8 1012.7 - 0.0 - - 10 - - - -
27/04:00am 19.8 WSW 6 7 1012.8 - 0.0 - - 10 - - - -
27/03:30am 20.5 WSW 5 6 1012.8 - 0.0 - - 10 - - - -
27/03:00am 20.7 SW 7 9 1012.8 - 0.0 - - 10 - - - -
27/02:30am 20.4 WSW 6 7 1013.1 - 0.0 - - 10 - - - -
27/02:00am 20.9 SW 5 6 1013.3 - 0.0 - - 10 - - - -
27/01:30am 21.2 SW 7 7 1013.6 - 0.0 - - 10 - - - -
27/01:00am 21.9 SW 7 7 1013.7 - 0.0 - Partly cloudy 10 - - - -
27/12:30am 22.5 SW 7 8 1013.8 - 0.0 - Partly cloudy 10 - - - -
27/12:00am 22.3 WSW 7 8 1014.0 - 0.0 - - 10 - - - -
 
Date/Time
WST
Temp
°C
Wind Pressure Rain since
9am
mm
Weather Cloud Vis
km
Sea
Height
m
Swell
Dir  Spd
kts
Gust
kts
hPa Trend Height
m
Period
s
Dir
26/11:30pm 22.0 SW 5 6 1014.2 - 0.0 - - 10 - - - -
26/11:00pm 22.9 WSW 7 9 1014.4 - 0.0 - - 10 - - - -
26/10:30pm 24.2 WSW 8 9 1014.5 - 0.0 - - 10 - - - -
26/10:00pm 23.8 WSW 7 8 1014.4 - 0.0 - - 10 - - - -
26/09:30pm 25.0 WSW 8 9 1014.2 - 0.0 - - 10 - - - -
26/09:00pm 25.6 W 7 8 1014.0 - 0.0 - - 10 - - - -
26/08:30pm 26.0 W 8 10 1013.9 - 0.0 - - 10 - - - -
26/08:00pm 26.5 WNW 8 9 1013.7 - 0.0 - - 10 - - - -
26/07:30pm 26.6 WNW 8 10 1013.4 - 0.0 - - 10 - - - -
26/07:00pm 26.8 WNW 7 9 1013.2 - 0.0 - - 10 - - - -
26/06:30pm 27.5 WNW 7 9 1012.9 - 0.0 - - 10 - - - -
26/06:00pm 27.3 NNW 4 5 1012.7 - 0.0 - - 10 - - - -
26/05:30pm 28.1 NNE 7 8 1012.3 - 0.0 - - 10 - - - -
26/05:00pm 29.5 NE 8 9 1012.2 - 0.0 - - 10 - - - -
26/04:30pm 30.5 NNE 7 9 1011.9 - 0.0 - - 10 - - - -
26/04:00pm 30.7 NNE 7 9 1012.0 - 0.0 - - 10 - - - -
26/03:30pm 31.0 NNE 8 10 1012.2 - 0.0 - - 10 - - - -
26/03:00pm 30.8 NNE 8 9 1012.3 - 0.0 - - 10 - - - -
26/02:30pm 30.4 NNE 9 11 1012.5 - 0.0 - - 10 - - - -
26/02:00pm 30.8 NE 10 13 1012.5 - 0.0 - - 10 - - - -
26/01:30pm 30.0 NE 10 12 1012.8 - 0.0 - - 10 - - - -
26/01:00pm 29.7 NE 9 11 1013.3 - 0.0 - - 10 - - - -
26/12:30pm 30.2 NE 9 12 1013.7 - 0.0 - - 10 - - - -
26/12:00pm 30.7 ENE 7 9 1014.0 - 0.0 - - 10 - - - -
26/11:30am 30.4 NE 7 9 1014.4 - 0.0 - - 10 - - - -
26/11:00am 30.6 NE 5 8 1014.7 - 0.0 - - 10 - - - -
26/10:30am 30.3 NNE 3 6 1015.1 - 0.0 - - 10 - - - -
26/10:00am 29.7 ENE 5 7 1015.5 - 0.0 - - 10 - - - -
26/09:30am 29.2 E 3 5 1015.6 - 0.0 - - 10 - - - -
26/09:00am 27.8 SSE 4 6 1015.6 - 0.0 - - 10 - - - -
26/08:30am 25.9 CALM 0 0 1015.5 - 0.0 - - 10 - - - -
26/08:00am 23.1 CALM 0 0 1015.3 - 0.0 - - 10 - - - -
26/07:30am 20.4 SSE 3 4 1015.0 - 0.0 - - 10 - - - -
26/07:00am 18.8 CALM 0 0 1014.7 - 0.0 - - 10 - - - -
26/06:30am 19.3 E 4 4 1014.5 - 0.0 - - 10 - - - -
26/06:00am 18.9 ENE 6 8 1014.2 - 0.0 - - 10 - - - -
26/05:30am 19.2 NE 5 7 1013.9 - 0.0 - - 10 - - - -
26/05:00am 18.9 NE 5 6 1013.9 - 0.0 - - 10 - - - -
26/04:30am 21.0 WSW 1 4 1013.5 - 0.0 - - 10 - - - -
26/04:00am 20.8 SW 3 4 1013.5 - 0.0 - - 10 - - - -
26/03:30am 20.9 WSW 7 8 1013.6 - 0.0 - - 10 - - - -
26/03:00am 20.5 SW 6 7 1013.9 - 0.0 - - 10 - - - -
26/02:30am 20.7 SW 6 7 1014.1 - 0.0 - - 10 - - - -
26/02:00am 20.9 SSW 6 7 1014.5 - 0.0 - - 10 - - - -
26/01:30am 21.3 SW 6 7 1014.7 - 0.0 - - 10 - - - -
26/01:00am 21.7 SW 4 5 1014.9 - 0.0 - - 10 - - - -
26/12:30am 22.0 SW 6 7 1014.9 - 0.0 - - 10 - - - -
26/12:00am 21.7 SSW 4 5 1015.1 - 0.0 - - 10 - - - -
 
Date/Time
WST
Temp
°C
Wind Pressure Rain since
9am
mm
Weather Cloud Vis
km
Sea
Height
m
Swell
Dir  Spd
kts
Gust
kts
hPa Trend Height
m
Period
s
Dir
25/11:30pm 22.2 SW 4 6 1015.1 - 0.0 - - 10 - - - -
25/11:00pm 21.8 SW 5 5 1015.2 - 0.0 - - 10 - - - -
25/10:30pm 22.3 SW 7 8 1015.2 - 0.0 - - 10 - - - -
25/10:00pm 22.3 SW 7 8 1015.2 - 0.0 - - 10 - - - -
25/09:30pm 22.7 SW 5 7 1015.2 - 0.0 - - 10 - - - -
25/09:00pm 23.1 SW 6 7 1015.1 - 0.0 - - 10 - - - -
25/08:30pm 25.5 WNW 5 7 1014.9 - 0.0 - - 10 - - - -
25/08:00pm 25.9 WNW 6 7 1014.5 - 0.0 - - 10 - - - -
25/07:30pm 26.2 NW 4 5 1014.4 - 0.0 - - 10 - - - -
25/07:00pm 26.5 NW 4 5 1014.0 - 0.0 - - 10 - - - -
25/06:30pm 25.7 W 3 7 1013.9 - 0.0 - - 10 - - - -
25/06:00pm 27.1 N 8 10 1013.5 - 0.0 - - 10 - - - -
25/05:30pm 27.1 NNE 6 8 1013.3 - 0.0 - - 10 - - - -
25/05:00pm 27.8 NNE 6 8 1013.2 - 0.0 - - 10 - - - -
25/04:30pm 29.4 NNE 6 8 1013.1 - 0.0 - - 10 - - - -
25/04:00pm 29.8 NNE 7 9 1013.0 - 0.0 - - 10 - - - -
25/03:30pm 29.9 NNE 8 10 1013.1 - 0.0 - - 10 - - - -
25/03:00pm 29.7 NNE 9 13 1013.0 - 0.0 - - 10 - - - -
25/02:30pm 29.8 NNE 9 12 1013.0 - 0.0 - - 10 - - - -
25/02:00pm 29.9 NE 11 13 1013.0 - 0.0 - - 10 - - - -
25/01:30pm 30.6 NE 10 13 1013.2 - 0.0 - - 10 - - - -
25/01:00pm 31.0 NE 11 14 1013.6 - 0.0 - - 10 - - - -

Other Formats:

Comma delimited format used in spreadsheet applications
http://www.bom.gov.au/fwo/IDW60701/IDW60701.95307.axf

JavaScript Object Notation format (JSON) in row-major order
http://www.bom.gov.au/fwo/IDW60701/IDW60701.95307.json